DAOV

Ghriss Airport

Algeria
METAR DAOV 161400Z 00000KT 9999 FEW026 BKN030 14/07 Q1017
Observed Flight Rules
Dec-16 @ 14:00 UTC (38 minutes ago) Marginal Visual Flight Rules
Wind Visibility Clouds
Calm 10,000+ meters
  • Few at 2,600' AGL
  • Broken at 3,000' AGL
Temperatures Readings
Current 14°C / 57°F
Dewpoint 7°C / 45°F
Humidity 63%
Altimeter 30.03" Hg
Pressure 1017 hPa
Elevation 514
METAR DAOV 161400Z 00000KT 9999 FEW026 BKN030 14/07 Q1017
Observed Flight Rules
Dec-16 @ 14:00 UTC
(38 minutes ago)
MVFR
Wind Visibility
Calm 10,000+ meters
Clouds
  • Few at 2,600' AGL
  • Broken at 3,000' AGL
Temperature Dewpoint
14°C / 57°F 7°C / 45°F
Humidity Altimeter Pressure
63% 30.03" Hg 1017 hPa